createdAt,value
2017-05-03T00:00:10.874Z,0
2017-05-03T00:00:43.157Z,0
2017-05-03T00:01:15.457Z,0
2017-05-03T00:01:47.757Z,0
2017-05-03T00:02:20.055Z,0
2017-05-03T00:02:52.345Z,0
2017-05-03T00:03:24.634Z,0
2017-05-03T00:03:56.932Z,0
2017-05-03T00:04:29.234Z,0
2017-05-03T00:05:01.511Z,0
2017-05-03T00:05:33.791Z,0
2017-05-03T00:06:08.035Z,0
2017-05-03T00:06:40.455Z,0
2017-05-03T00:07:12.742Z,0
2017-05-03T00:07:45.038Z,0
2017-05-03T00:08:17.335Z,0
2017-05-03T00:08:49.644Z,0
2017-05-03T00:09:21.932Z,0
2017-05-03T00:09:54.216Z,0
2017-05-03T00:10:26.517Z,0
2017-05-03T00:10:58.795Z,0
2017-05-03T00:11:31.100Z,0
2017-05-03T00:12:03.372Z,0
2017-05-03T00:12:35.699Z,0
2017-05-03T00:13:07.993Z,0
2017-05-03T00:13:40.240Z,0
2017-05-03T00:14:12.500Z,0
2017-05-03T00:14:44.747Z,0
2017-05-03T00:15:16.998Z,0
2017-05-03T00:15:49.266Z,0
2017-05-03T00:16:21.521Z,0
2017-05-03T00:16:54.538Z,0
2017-05-03T00:19:31.902Z,0
2017-05-03T00:20:04.154Z,0
2017-05-03T00:20:36.401Z,0
2017-05-03T00:21:08.640Z,0
2017-05-03T00:21:40.931Z,0
2017-05-03T00:22:13.226Z,0
2017-05-03T00:22:45.515Z,0
2017-05-03T00:23:17.813Z,0
2017-05-03T00:23:50.120Z,0
2017-05-03T00:24:22.414Z,0
2017-05-03T00:24:54.691Z,0
2017-05-03T00:25:26.980Z,0
2017-05-03T00:25:59.271Z,0
2017-05-03T00:26:31.547Z,0
2017-05-03T00:27:03.838Z,0
2017-05-03T00:27:36.123Z,0
2017-05-03T00:28:08.410Z,0
2017-05-03T00:28:40.698Z,0
2017-05-03T00:29:13.000Z,0
2017-05-03T00:29:45.292Z,0
2017-05-03T00:30:17.565Z,0
2017-05-03T00:30:49.838Z,0
2017-05-03T00:31:22.128Z,0
2017-05-03T00:31:54.415Z,0
2017-05-03T00:32:26.683Z,0
2017-05-03T00:32:58.915Z,0
2017-05-03T00:33:31.149Z,0
2017-05-03T00:34:03.420Z,0
2017-05-03T00:34:35.679Z,0
2017-05-03T00:35:07.931Z,0
2017-05-03T00:35:40.193Z,0
2017-05-03T00:36:12.464Z,0
2017-05-03T00:36:44.716Z,0
2017-05-03T00:37:16.973Z,0
2017-05-03T00:37:49.232Z,0
2017-05-03T00:38:21.520Z,0
2017-05-03T00:38:53.780Z,0
2017-05-03T00:39:26.993Z,0
2017-05-03T00:39:59.277Z,0
2017-05-03T00:40:31.562Z,0
2017-05-03T00:41:03.823Z,0
2017-05-03T00:41:36.083Z,0
2017-05-03T00:42:08.350Z,0
2017-05-03T00:42:41.373Z,0
2017-05-03T00:43:13.631Z,0
2017-05-03T00:43:45.907Z,0
2017-05-03T00:44:18.231Z,0
2017-05-03T00:44:50.546Z,0
2017-05-03T00:45:24.059Z,0
2017-05-03T00:45:56.317Z,0
2017-05-03T00:46:28.576Z,0
2017-05-03T00:47:00.859Z,0
2017-05-03T00:47:33.162Z,0
2017-05-03T00:48:05.412Z,0
2017-05-03T00:48:37.701Z,0
2017-05-03T00:49:09.967Z,0
2017-05-03T00:49:42.221Z,0
2017-05-03T00:50:14.469Z,0
2017-05-03T00:50:46.730Z,0
2017-05-03T00:51:19.028Z,0
2017-05-03T00:51:51.352Z,0
2017-05-03T00:52:23.598Z,0
2017-05-03T00:52:55.850Z,0
2017-05-03T00:53:28.073Z,0
2017-05-03T00:54:01.068Z,0
2017-05-03T00:54:33.329Z,0
2017-05-03T00:55:05.574Z,0
2017-05-03T00:55:37.824Z,0
2017-05-03T00:56:10.193Z,0
2017-05-03T00:56:42.440Z,0
2017-05-03T00:57:14.690Z,0
2017-05-03T00:57:46.924Z,0
2017-05-03T00:58:19.915Z,0
2017-05-03T00:58:52.170Z,0
2017-05-03T00:59:24.420Z,0
2017-05-03T00:59:56.759Z,0
2017-05-03T01:00:29.043Z,0
2017-05-03T01:01:01.870Z,0
2017-05-03T01:01:34.916Z,0
2017-05-03T01:02:07.175Z,0
2017-05-03T01:02:39.439Z,0
2017-05-03T01:03:11.701Z,0
2017-05-03T01:03:43.929Z,0
2017-05-03T01:04:17.005Z,0
2017-05-03T01:04:49.927Z,0
2017-05-03T01:05:22.189Z,0
2017-05-03T01:05:54.446Z,0
2017-05-03T01:06:26.689Z,0
2017-05-03T01:06:59.452Z,0
2017-05-03T01:07:31.704Z,0
2017-05-03T01:08:04.562Z,0
2017-05-03T01:08:36.864Z,0
2017-05-03T01:09:09.127Z,0
2017-05-03T01:09:41.381Z,0
2017-05-03T01:10:13.665Z,0
2017-05-03T01:10:46.567Z,0
2017-05-03T01:11:18.834Z,0
2017-05-03T01:11:51.098Z,0
2017-05-03T01:12:23.357Z,0
2017-05-03T01:12:55.619Z,0
2017-05-03T01:13:27.888Z,0
2017-05-03T01:14:00.148Z,0
2017-05-03T01:14:32.416Z,0
2017-05-03T01:15:05.503Z,0
2017-05-03T01:15:37.771Z,0
2017-05-03T01:16:10.027Z,0
2017-05-03T01:16:42.288Z,0
2017-05-03T01:17:14.538Z,0
2017-05-03T01:17:46.801Z,0
2017-05-03T01:18:19.070Z,0
2017-05-03T01:18:51.342Z,0
2017-05-03T01:19:23.615Z,0
2017-05-03T01:19:55.863Z,0
2017-05-03T01:20:28.139Z,0
2017-05-03T01:21:00.402Z,0
2017-05-03T01:21:32.654Z,0
2017-05-03T01:22:04.902Z,0
2017-05-03T01:22:37.146Z,0
2017-05-03T01:23:09.920Z,0
2017-05-03T01:23:42.182Z,0
2017-05-03T01:24:14.473Z,0
2017-05-03T01:24:46.747Z,0
2017-05-03T01:25:19.932Z,0
2017-05-03T01:25:52.188Z,0
2017-05-03T01:26:24.440Z,0
2017-05-03T01:26:56.699Z,0
2017-05-03T01:27:28.946Z,0
2017-05-03T01:28:01.198Z,0
2017-05-03T01:28:33.535Z,0
2017-05-03T01:29:05.796Z,0
2017-05-03T01:29:38.027Z,0
2017-05-03T01:30:10.259Z,0
2017-05-03T01:30:42.636Z,0
2017-05-03T01:31:14.926Z,0
2017-05-03T01:31:47.187Z,0
2017-05-03T01:32:19.459Z,0
2017-05-03T01:32:51.767Z,0
2017-05-03T01:33:24.061Z,0
2017-05-03T01:33:56.347Z,0
2017-05-03T01:34:28.651Z,0
2017-05-03T01:35:00.942Z,0
2017-05-03T01:35:33.222Z,0
2017-05-03T01:36:05.513Z,0
2017-05-03T01:36:37.810Z,0
2017-05-03T01:37:10.099Z,0
2017-05-03T01:37:42.401Z,0
2017-05-03T01:38:14.698Z,0
2017-05-03T01:38:46.985Z,0
2017-05-03T01:39:19.273Z,0
2017-05-03T01:39:51.570Z,0
2017-05-03T01:40:23.849Z,0
2017-05-03T01:40:56.130Z,0
2017-05-03T01:41:28.421Z,0
2017-05-03T01:42:00.710Z,0
2017-05-03T01:42:32.975Z,0
2017-05-03T01:43:05.270Z,0
2017-05-03T01:43:37.539Z,0
2017-05-03T01:44:09.819Z,0
2017-05-03T01:44:42.086Z,0
2017-05-03T01:45:14.435Z,0
2017-05-03T01:45:46.686Z,0
2017-05-03T01:46:18.963Z,0
2017-05-03T01:46:51.216Z,0
2017-05-03T01:47:23.462Z,0
2017-05-03T01:47:55.733Z,0
2017-05-03T01:48:28.106Z,0
2017-05-03T01:49:01.025Z,0
2017-05-03T01:49:33.276Z,0
2017-05-03T01:50:05.552Z,0
2017-05-03T01:50:37.816Z,0
2017-05-03T01:51:11.024Z,0
2017-05-03T01:51:43.295Z,0
2017-05-03T01:52:15.617Z,0
2017-05-03T01:52:47.922Z,0
2017-05-03T01:53:20.217Z,0
2017-05-03T01:53:52.500Z,0
2017-05-03T01:54:24.785Z,0
2017-05-03T01:54:57.071Z,0
2017-05-03T01:55:29.383Z,0
2017-05-03T01:56:01.686Z,0
2017-05-03T01:56:33.994Z,0
2017-05-03T01:57:06.284Z,0
2017-05-03T01:57:38.580Z,0
2017-05-03T01:58:10.878Z,0
2017-05-03T01:58:43.176Z,0
2017-05-03T01:59:15.478Z,0
2017-05-03T01:59:47.790Z,0
2017-05-03T02:00:20.093Z,0
2017-05-03T02:00:52.392Z,0
2017-05-03T02:01:24.675Z,0
2017-05-03T02:01:57.012Z,0
2017-05-03T02:02:29.294Z,0
2017-05-03T02:03:01.598Z,0
2017-05-03T02:03:33.893Z,0
2017-05-03T02:04:06.186Z,0
2017-05-03T02:04:38.477Z,0
2017-05-03T02:05:10.761Z,0
2017-05-03T02:05:43.066Z,0
2017-05-03T02:06:15.363Z,0
2017-05-03T02:06:47.658Z,0
2017-05-03T02:07:19.948Z,0
2017-05-03T02:07:52.234Z,0
2017-05-03T02:08:24.563Z,0
2017-05-03T02:08:56.851Z,0
2017-05-03T02:09:29.145Z,0
2017-05-03T02:10:01.427Z,0
2017-05-03T02:10:33.726Z,0
2017-05-03T02:11:06.013Z,0
2017-05-03T02:11:38.302Z,0
2017-05-03T02:12:10.573Z,0
2017-05-03T02:12:42.828Z,0
2017-05-03T02:13:15.078Z,0
2017-05-03T02:13:47.319Z,0
2017-05-03T02:14:19.584Z,0
2017-05-03T02:14:51.822Z,0
2017-05-03T02:15:24.064Z,0
2017-05-03T02:15:56.389Z,0
2017-05-03T02:16:28.648Z,0
2017-05-03T02:17:00.895Z,0
2017-05-03T02:17:33.158Z,0
2017-05-03T02:18:05.441Z,0
2017-05-03T02:18:37.699Z,0
2017-05-03T02:19:09.979Z,0
2017-05-03T02:19:42.293Z,0
2017-05-03T02:20:14.543Z,0
2017-05-03T02:20:46.808Z,0
2017-05-03T02:21:19.085Z,0
2017-05-03T02:21:51.355Z,0
2017-05-03T02:22:24.383Z,0
2017-05-03T02:22:56.672Z,0
2017-05-03T02:23:28.925Z,0
2017-05-03T02:24:01.179Z,0
2017-05-03T02:24:34.407Z,0
2017-05-03T02:25:06.683Z,0
2017-05-03T02:25:39.522Z,0
2017-05-03T02:26:11.769Z,0
2017-05-03T02:26:44.063Z,0
2017-05-03T02:27:16.321Z,0
2017-05-03T02:27:48.582Z,0
2017-05-03T02:28:20.837Z,0
2017-05-03T02:28:53.134Z,0
2017-05-03T02:29:25.403Z,0
2017-05-03T02:29:57.677Z,0
2017-05-03T02:30:29.944Z,0
2017-05-03T02:31:03.077Z,0
2017-05-03T02:31:35.366Z,0
2017-05-03T02:32:08.560Z,0
2017-05-03T02:32:41.452Z,0
2017-05-03T02:33:13.708Z,0
2017-05-03T02:33:45.962Z,0
2017-05-03T02:34:18.206Z,0
2017-05-03T02:34:50.453Z,0
2017-05-03T02:35:22.749Z,0
2017-05-03T02:35:55.003Z,0
2017-05-03T02:36:27.255Z,0
2017-05-03T02:37:00.475Z,0
2017-05-03T02:37:32.766Z,0
2017-05-03T02:38:05.018Z,0
2017-05-03T02:38:37.271Z,0
2017-05-03T02:39:10.112Z,0
2017-05-03T07:55:21.113Z,2144
2017-05-03T07:55:53.438Z,2000
2017-05-03T07:56:25.695Z,2064
2017-05-03T07:56:57.947Z,2380
2017-05-03T07:57:30.175Z,2664
2017-05-03T07:58:02.541Z,2760
2017-05-03T07:58:34.825Z,2844
2017-05-03T07:59:07.072Z,2520
2017-05-03T07:59:39.336Z,2000
2017-05-03T08:00:11.593Z,1628
2017-05-03T08:00:43.830Z,1580
2017-05-03T08:01:16.091Z,2080
2017-05-03T08:01:48.345Z,2088
2017-05-03T08:02:20.612Z,3464
2017-05-03T08:02:52.894Z,4100
2017-05-03T08:04:44.604Z,2512
2017-05-03T08:05:16.909Z,3064
2017-05-03T08:05:49.230Z,4200
2017-05-03T08:06:21.501Z,4652
2017-05-03T08:06:53.780Z,3356
2017-05-03T08:07:26.560Z,4112
2017-05-03T08:07:59.620Z,4864
2017-05-03T08:08:31.894Z,3900
2017-05-03T08:09:04.183Z,3624
2017-05-03T08:09:36.508Z,2200
2017-05-03T08:10:08.778Z,2900
2017-05-03T08:10:41.072Z,2124
2017-05-03T08:12:32.589Z,4272
2017-05-03T08:13:04.883Z,3812
2017-05-03T08:13:37.151Z,3340
2017-05-03T08:14:09.447Z,4452
2017-05-03T08:14:41.750Z,4220
2017-05-03T08:15:14.051Z,4708
2017-05-03T08:17:05.600Z,5492
2017-05-03T08:17:37.879Z,4492
2017-05-03T08:18:10.168Z,3932
2017-05-03T08:21:21.238Z,5224
2017-05-03T08:21:53.521Z,5712
2017-05-03T08:22:25.818Z,5980
2017-05-03T08:22:58.084Z,5532
2017-05-03T08:23:30.378Z,5348
2017-05-03T08:24:02.677Z,5040
2017-05-03T08:24:34.988Z,4984
2017-05-03T08:25:07.000Z,5736
2017-05-03T08:25:39.281Z,6124
2017-05-03T08:27:31.436Z,5776
2017-05-03T08:28:04.281Z,5424
2017-05-03T08:29:55.900Z,5172
2017-05-03T08:30:28.204Z,5544
2017-05-03T08:31:00.475Z,5556
2017-05-03T08:31:32.758Z,5180
2017-05-03T08:32:05.068Z,4956
2017-05-03T08:32:37.364Z,4896
2017-05-03T08:33:09.682Z,4724
2017-05-03T08:33:41.965Z,5196
2017-05-03T08:34:14.242Z,5256
2017-05-03T08:34:46.527Z,5656
2017-05-03T08:35:19.579Z,5616
2017-05-03T08:35:51.849Z,5464
2017-05-03T08:36:24.137Z,5580
2017-05-03T08:36:56.158Z,5252
2017-05-03T08:37:28.456Z,5296
2017-05-03T08:39:20.137Z,5372
2017-05-03T08:39:52.408Z,5456
2017-05-03T08:40:24.664Z,5208
2017-05-03T08:40:56.729Z,3376
2017-05-03T08:41:29.021Z,3492
2017-05-03T08:42:01.317Z,2636
2017-05-03T08:42:33.639Z,2696
2017-05-03T08:43:05.919Z,2892
2017-05-03T08:43:38.881Z,5012
2017-05-03T08:45:30.628Z,5380
2017-05-03T08:46:02.919Z,5208
2017-05-03T08:46:35.235Z,5344
2017-05-03T08:47:07.609Z,5424
2017-05-03T08:47:39.881Z,5540
2017-05-03T08:48:12.169Z,5672
2017-05-03T08:48:44.628Z,5796
2017-05-03T08:49:16.917Z,5804
2017-05-03T08:49:49.308Z,5716
2017-05-03T08:51:41.185Z,4288
2017-05-03T08:52:13.711Z,4992
2017-05-03T08:52:46.118Z,5328
2017-05-03T08:54:37.627Z,3916
2017-05-03T08:55:09.915Z,5476
2017-05-03T08:55:42.553Z,5332
2017-05-03T08:57:34.433Z,3652
2017-05-03T08:58:06.867Z,3704
2017-05-03T08:58:39.164Z,3932
2017-05-03T08:59:11.448Z,5720
2017-05-03T08:59:43.752Z,5680
2017-05-03T09:00:16.042Z,3956
2017-05-03T09:02:07.732Z,5656
2017-05-03T09:03:59.264Z,5256
2017-05-03T09:04:31.712Z,3668
2017-05-03T09:06:23.214Z,5592
2017-05-03T09:06:55.216Z,5524
2017-05-03T09:07:27.514Z,5516
2017-05-03T09:07:59.801Z,5492
2017-05-03T09:08:31.796Z,5396
2017-05-03T09:09:04.112Z,5336
2017-05-03T09:09:36.433Z,5268
2017-05-03T09:10:08.757Z,5252
2017-05-03T09:10:41.232Z,4900
2017-05-03T09:11:13.539Z,4808
2017-05-03T09:11:45.833Z,5204
2017-05-03T09:12:18.123Z,5300
2017-05-03T09:12:50.427Z,5300
2017-05-03T09:14:42.180Z,3416
2017-05-03T09:15:14.760Z,3756
2017-05-03T09:15:47.311Z,5112
2017-05-03T09:16:19.601Z,5244
2017-05-03T09:16:51.895Z,5208
2017-05-03T09:18:43.697Z,6060
2017-05-03T09:20:35.659Z,4712
2017-05-03T09:21:07.980Z,3676
2017-05-03T09:21:40.280Z,3764
2017-05-03T09:23:32.161Z,5352
2017-05-03T09:24:04.454Z,5384
2017-05-03T09:24:36.746Z,5332
2017-05-03T09:25:09.026Z,5188
2017-05-03T09:25:41.304Z,5076
2017-05-03T09:26:13.590Z,5028
2017-05-03T09:26:45.877Z,4968
2017-05-03T09:27:18.170Z,4928
2017-05-03T09:27:50.442Z,4924
2017-05-03T09:28:22.734Z,4880
2017-05-03T09:28:54.996Z,4768
2017-05-03T09:29:27.282Z,4792
2017-05-03T09:29:59.628Z,4748
2017-05-03T09:30:31.937Z,4736
2017-05-03T09:31:04.217Z,4720
2017-05-03T09:31:36.526Z,4732
2017-05-03T09:32:08.818Z,4760
2017-05-03T09:32:41.585Z,4812
2017-05-03T09:33:13.860Z,4880
2017-05-03T09:33:48.716Z,4928
2017-05-03T09:34:21.616Z,5040
2017-05-03T09:34:53.954Z,4996
2017-05-03T09:35:26.199Z,4884
2017-05-03T09:35:58.457Z,4736
2017-05-03T09:36:30.698Z,4316
2017-05-03T09:37:02.947Z,3968
2017-05-03T09:37:35.323Z,4672
2017-05-03T09:38:08.206Z,4816
2017-05-03T09:38:40.481Z,4868
2017-05-03T09:39:14.633Z,4696
2017-05-03T09:39:46.892Z,4520
2017-05-03T09:40:19.145Z,4308
2017-05-03T09:40:51.398Z,4364
2017-05-03T09:41:23.671Z,4524
2017-05-03T09:41:55.917Z,4632
2017-05-03T09:42:28.230Z,4640
2017-05-03T09:43:00.517Z,3388
2017-05-03T09:43:32.761Z,4680
2017-05-03T09:44:05.005Z,4680
2017-05-03T09:44:38.184Z,4512
2017-05-03T09:45:10.479Z,4952
2017-05-03T09:45:43.600Z,5100
2017-05-03T09:46:15.846Z,3692
2017-05-03T09:46:48.231Z,3848
2017-05-03T09:47:20.500Z,4148
2017-05-03T09:47:52.777Z,3828
2017-05-03T09:48:25.035Z,3820
2017-05-03T09:48:57.275Z,3828
2017-05-03T09:49:29.523Z,3976
2017-05-03T09:50:01.766Z,4092
2017-05-03T09:50:34.039Z,4208
2017-05-03T09:51:07.176Z,5220
2017-05-03T09:51:39.470Z,5624
2017-05-03T09:52:11.747Z,5876
2017-05-03T09:52:44.038Z,5944
2017-05-03T09:53:16.310Z,6016
2017-05-03T09:53:48.757Z,5936
2017-05-03T09:54:21.032Z,5692
2017-05-03T09:54:53.320Z,5444
2017-05-03T09:55:25.610Z,5252
2017-05-03T09:55:57.895Z,5108
2017-05-03T09:56:30.187Z,5084
2017-05-03T09:57:02.459Z,5080
2017-05-03T09:57:35.313Z,5112
2017-05-03T09:58:07.818Z,5196
2017-05-03T09:58:40.107Z,5228
2017-05-03T09:59:12.387Z,4808
2017-05-03T09:59:44.683Z,4904
2017-05-03T10:00:16.977Z,4888
2017-05-03T10:00:49.262Z,3868
2017-05-03T10:01:21.541Z,4932
2017-05-03T10:01:53.828Z,4320
2017-05-03T10:02:26.711Z,5060
2017-05-03T10:02:58.959Z,4140
2017-05-03T10:03:31.219Z,4188
2017-05-03T10:04:03.496Z,4276
2017-05-03T10:04:35.842Z,4404
2017-05-03T10:05:08.111Z,4600
2017-05-03T10:05:40.372Z,5184
2017-05-03T10:06:12.634Z,5728
2017-05-03T10:06:44.916Z,4804
2017-05-03T10:07:17.160Z,4884
2017-05-03T10:07:49.417Z,6236
2017-05-03T10:08:23.174Z,5472
2017-05-03T10:08:55.431Z,4912
2017-05-03T10:09:27.698Z,5332
2017-05-03T10:10:00.035Z,6392
2017-05-03T10:10:32.307Z,6368
2017-05-03T10:11:05.218Z,6152
2017-05-03T10:11:37.527Z,6016
2017-05-03T10:12:09.874Z,5728
2017-05-03T10:12:43.140Z,5632
2017-05-03T10:13:15.396Z,5432
2017-05-03T10:13:48.865Z,5236
2017-05-03T10:14:24.796Z,4800
2017-05-03T10:14:57.073Z,4868
2017-05-03T10:15:29.336Z,4308
2017-05-03T10:16:01.602Z,4100
2017-05-03T10:16:33.851Z,5296
2017-05-03T10:17:06.665Z,5416
2017-05-03T10:17:38.925Z,5144
2017-05-03T10:18:11.185Z,4420
2017-05-03T10:18:43.445Z,3968
2017-05-03T10:19:16.573Z,3952
2017-05-03T10:19:48.824Z,4000
2017-05-03T10:20:21.091Z,4036
2017-05-03T10:20:53.364Z,4684
2017-05-03T10:21:26.142Z,5956
2017-05-03T10:21:58.373Z,5920
2017-05-03T10:22:30.630Z,5860
2017-05-03T10:23:02.900Z,5848
2017-05-03T10:23:35.138Z,5900
2017-05-03T10:24:07.539Z,5832
2017-05-03T10:24:39.794Z,5584
2017-05-03T10:25:13.123Z,5676
2017-05-03T10:25:45.359Z,4132
2017-05-03T10:26:18.121Z,4028
2017-05-03T10:26:50.369Z,4080
2017-05-03T10:27:22.619Z,5392
2017-05-03T10:27:54.893Z,5516
2017-05-03T10:28:27.151Z,4232
2017-05-03T10:29:00.199Z,4408
2017-05-03T10:29:32.448Z,4804
2017-05-03T10:30:04.707Z,5184
2017-05-03T10:30:36.945Z,4852
2017-05-03T10:31:09.206Z,6088
2017-05-03T10:31:41.457Z,5428
2017-05-03T10:32:14.204Z,6148
2017-05-03T10:32:48.123Z,6284
2017-05-03T10:33:20.378Z,6260
2017-05-03T10:33:52.645Z,6192
2017-05-03T10:34:24.900Z,6152
2017-05-03T10:34:57.221Z,6064
2017-05-03T10:35:30.131Z,6052
2017-05-03T10:36:02.372Z,5996
2017-05-03T10:36:34.616Z,6000
2017-05-03T10:37:06.888Z,5852
2017-05-03T10:37:39.153Z,5652
2017-05-03T10:38:11.399Z,5620
2017-05-03T10:38:43.646Z,4912
2017-05-03T10:39:16.683Z,5556
2017-05-03T10:39:48.952Z,5536
2017-05-03T10:40:21.247Z,5664
2017-05-03T10:40:53.506Z,5964
2017-05-03T10:41:25.861Z,6176
2017-05-03T10:41:58.110Z,6388
2017-05-03T10:42:30.379Z,6476
2017-05-03T10:43:02.700Z,6484
2017-05-03T10:43:34.990Z,6400
2017-05-03T10:44:07.281Z,6048
2017-05-03T10:44:39.577Z,5888
2017-05-03T10:45:11.865Z,4832
2017-05-03T10:45:44.148Z,5952
2017-05-03T10:46:16.435Z,6132
2017-05-03T10:46:48.712Z,6236
2017-05-03T10:47:20.986Z,6224
2017-05-03T10:47:53.283Z,6136
2017-05-03T10:48:25.554Z,6264
2017-05-03T10:48:58.904Z,6444
2017-05-03T10:49:31.347Z,6304
2017-05-03T10:50:04.217Z,6560
2017-05-03T10:50:36.498Z,5948
2017-05-03T10:51:08.791Z,4660
2017-05-03T10:51:41.636Z,4524
2017-05-03T10:52:13.897Z,4516
2017-05-03T10:52:46.166Z,5160
2017-05-03T10:53:18.420Z,4876
2017-05-03T10:53:50.675Z,4940
2017-05-03T10:54:22.942Z,4940
2017-05-03T10:54:55.291Z,4788
2017-05-03T10:55:27.534Z,4684
2017-05-03T10:55:59.771Z,4756
2017-05-03T10:56:32.021Z,6688
2017-05-03T10:57:04.272Z,6300
2017-05-03T10:57:36.514Z,6932
2017-05-03T10:58:08.854Z,7132
2017-05-03T10:58:41.161Z,6700
2017-05-03T10:59:13.417Z,5052
2017-05-03T10:59:45.654Z,4680
2017-05-03T11:00:17.909Z,4600
2017-05-03T11:00:50.295Z,6608
2017-05-03T11:01:22.542Z,6656
2017-05-03T11:01:54.790Z,6716
2017-05-03T11:02:27.039Z,6892
2017-05-03T11:02:59.294Z,6936
2017-05-03T11:03:32.111Z,6552
2017-05-03T11:04:04.384Z,6140
2017-05-03T11:04:36.653Z,5904
2017-05-03T11:05:08.915Z,4284
2017-05-03T11:05:41.171Z,4120
2017-05-03T11:06:14.120Z,4428
2017-05-03T11:06:46.464Z,5052
2017-05-03T11:07:18.712Z,4156
2017-05-03T11:07:52.243Z,4456
2017-05-03T11:08:24.537Z,4648
2017-05-03T11:08:58.166Z,5144
2017-05-03T11:09:30.433Z,6076
2017-05-03T11:10:02.707Z,5592
2017-05-03T11:10:35.732Z,6156
2017-05-03T11:11:09.197Z,7816
2017-05-03T11:11:42.132Z,8068
2017-05-03T11:12:14.391Z,6428
2017-05-03T11:12:46.669Z,6076
2017-05-03T11:13:18.936Z,6424
2017-05-03T11:13:51.200Z,7496
2017-05-03T11:14:25.201Z,7524
2017-05-03T11:14:57.488Z,7900
2017-05-03T11:15:29.740Z,8104
2017-05-03T11:16:01.994Z,8068
2017-05-03T11:16:34.382Z,7672
2017-05-03T11:17:06.654Z,7264
2017-05-03T11:17:38.925Z,6708
2017-05-03T11:18:11.192Z,6864
2017-05-03T11:18:43.476Z,5708
2017-05-03T11:19:15.757Z,5036
2017-05-03T11:19:48.012Z,4916
2017-05-03T11:20:20.294Z,4824
2017-05-03T11:20:52.580Z,4860
2017-05-03T11:21:24.854Z,4892
2017-05-03T11:21:57.135Z,4980
2017-05-03T11:22:29.409Z,5336
2017-05-03T11:23:01.686Z,5444
2017-05-03T11:23:33.951Z,5416
2017-05-03T11:24:06.232Z,5600
2017-05-03T11:24:38.511Z,6156
2017-05-03T11:25:10.803Z,7672
2017-05-03T11:25:43.084Z,7724
2017-05-03T11:26:15.366Z,7916
2017-05-03T11:26:47.636Z,7776
2017-05-03T11:27:19.904Z,7244
2017-05-03T11:27:52.192Z,6784
2017-05-03T11:28:24.474Z,7460
2017-05-03T11:28:56.755Z,7452
2017-05-03T11:29:29.058Z,6192
2017-05-03T11:30:01.353Z,6112
2017-05-03T11:30:33.621Z,6548
2017-05-03T11:31:05.884Z,6004
2017-05-03T11:31:38.160Z,6072
2017-05-03T11:32:10.458Z,7732
2017-05-03T11:32:42.832Z,7904
2017-05-03T11:33:15.088Z,7928
2017-05-03T11:33:47.350Z,7560
2017-05-03T11:34:19.599Z,6660
2017-05-03T11:34:51.851Z,7336
2017-05-03T11:35:24.146Z,6668
2017-05-03T11:35:56.403Z,6584
2017-05-03T11:36:29.159Z,7596
2017-05-03T11:37:01.406Z,7940
2017-05-03T11:37:33.682Z,8528
2017-05-03T11:38:05.929Z,8856
2017-05-03T11:38:38.162Z,9076
2017-05-03T11:39:10.426Z,9204
2017-05-03T11:39:42.715Z,9296
2017-05-03T11:40:14.984Z,7840
2017-05-03T11:40:47.238Z,6336
2017-05-03T11:41:19.517Z,5984
2017-05-03T11:41:51.768Z,7884
2017-05-03T11:42:24.048Z,7584
2017-05-03T11:42:56.312Z,8104
2017-05-03T11:43:28.591Z,8220
2017-05-03T11:44:00.877Z,8416
2017-05-03T11:44:33.212Z,8848
2017-05-03T11:45:05.501Z,7896
2017-05-03T11:45:38.652Z,9308
2017-05-03T11:46:10.956Z,10140
2017-05-03T11:46:43.227Z,7936
2017-05-03T11:47:15.498Z,7016
2017-05-03T11:47:47.767Z,6264
2017-05-03T11:48:20.047Z,6720
2017-05-03T11:48:52.333Z,8304
2017-05-03T11:49:24.604Z,8124
2017-05-03T11:49:56.895Z,7132
2017-05-03T11:50:29.179Z,6740
2017-05-03T11:51:01.457Z,6840
2017-05-03T11:51:33.729Z,9808
2017-05-03T11:52:06.018Z,10184
2017-05-03T11:52:38.276Z,10500
2017-05-03T11:53:10.526Z,10440
2017-05-03T11:53:43.698Z,10504
2017-05-03T11:54:15.962Z,7040
2017-05-03T11:54:48.216Z,6828
2017-05-03T11:55:20.462Z,8632
2017-05-03T11:55:52.701Z,10312
2017-05-03T11:56:24.958Z,10196
2017-05-03T11:56:57.223Z,9940
2017-05-03T11:57:29.463Z,9688
2017-05-03T11:58:01.707Z,10008
2017-05-03T11:58:33.986Z,10144
2017-05-03T11:59:06.261Z,10252
2017-05-03T11:59:38.532Z,10380
2017-05-03T12:00:10.888Z,10552
2017-05-03T12:00:43.147Z,10596
2017-05-03T12:01:15.440Z,10548
2017-05-03T12:01:48.300Z,10552
2017-05-03T12:02:20.559Z,10552
2017-05-03T12:02:52.943Z,10148
2017-05-03T12:03:25.191Z,6608
2017-05-03T12:03:57.427Z,6388
2017-05-03T12:04:29.678Z,7232
2017-05-03T12:05:01.931Z,7584
2017-05-03T12:05:34.173Z,8004
2017-05-03T12:06:06.428Z,7696
2017-05-03T12:06:39.755Z,7712
2017-05-03T12:07:12.097Z,6904
2017-05-03T12:07:44.350Z,6584
2017-05-03T12:08:16.626Z,6724
2017-05-03T12:08:48.876Z,7524
2017-05-03T12:09:21.119Z,7788
2017-05-03T12:09:53.356Z,7684
2017-05-03T12:10:25.621Z,10488
2017-05-03T12:10:57.891Z,7032
2017-05-03T12:11:30.137Z,6468
2017-05-03T12:12:02.396Z,6140
2017-05-03T12:12:34.667Z,6104
2017-05-03T12:13:06.950Z,5652
2017-05-03T12:13:39.218Z,5076
2017-05-03T12:14:11.499Z,5100
2017-05-03T12:14:43.762Z,5288
2017-05-03T12:15:16.025Z,5672
2017-05-03T12:15:48.296Z,6284
2017-05-03T12:16:20.569Z,6844
2017-05-03T12:16:52.833Z,7184
2017-05-03T12:17:25.116Z,7408
2017-05-03T12:17:57.396Z,7756
2017-05-03T12:18:29.656Z,8604
2017-05-03T12:19:01.930Z,12060
2017-05-03T12:19:34.209Z,12588
2017-05-03T12:20:06.478Z,13180
2017-05-03T12:20:38.752Z,13268
2017-05-03T12:21:11.030Z,12848
2017-05-03T12:21:43.303Z,13408
2017-05-03T12:23:34.907Z,8436
2017-05-03T12:24:07.193Z,10112
2017-05-03T12:24:39.448Z,10656
2017-05-03T12:25:11.772Z,10548
2017-05-03T12:27:03.244Z,12680
2017-05-03T12:27:35.512Z,9728
2017-05-03T12:28:07.785Z,9324
2017-05-03T12:28:40.056Z,11964
2017-05-03T12:29:12.330Z,8304
2017-05-03T12:29:44.621Z,7596
2017-05-03T12:30:16.899Z,7396
2017-05-03T12:30:49.180Z,7312
2017-05-03T12:31:21.446Z,8164
2017-05-03T12:31:53.694Z,9668
2017-05-03T12:32:25.986Z,8472
2017-05-03T12:32:58.293Z,7908
2017-05-03T12:34:49.783Z,6364
2017-05-03T12:35:22.048Z,6164
2017-05-03T12:35:54.713Z,6340
2017-05-03T12:36:27.999Z,8788
2017-05-03T12:38:19.743Z,16060
2017-05-03T12:38:55.092Z,15360
2017-05-03T12:39:27.441Z,15628
2017-05-03T12:39:59.732Z,15584
2017-05-03T12:40:32.006Z,15860
2017-05-03T12:41:04.307Z,15988
2017-05-03T12:41:36.588Z,16172
2017-05-03T12:42:08.865Z,16132
2017-05-03T12:42:41.141Z,16108
2017-05-03T12:43:13.432Z,16180
2017-05-03T12:43:45.698Z,16284
2017-05-03T12:44:17.990Z,16392
2017-05-03T12:44:50.267Z,16692
2017-05-03T12:45:22.546Z,16604
2017-05-03T12:45:54.816Z,16140
2017-05-03T12:46:27.084Z,16468
2017-05-03T12:46:59.370Z,10892
2017-05-03T12:47:31.632Z,8960
2017-05-03T12:48:03.907Z,8536
2017-05-03T12:48:36.192Z,8028
2017-05-03T12:49:08.478Z,7832
2017-05-03T12:49:40.770Z,14564
2017-05-03T12:50:13.048Z,16600
2017-05-03T12:50:45.322Z,16628
2017-05-03T12:51:17.597Z,16664
2017-05-03T12:51:49.918Z,17300
2017-05-03T12:52:22.188Z,17628
2017-05-03T12:52:54.488Z,17984
2017-05-03T12:53:26.775Z,17288
2017-05-03T12:53:59.062Z,16920
2017-05-03T12:54:31.352Z,10924
2017-05-03T12:55:03.625Z,9928
2017-05-03T12:55:35.900Z,9356
2017-05-03T12:56:08.169Z,18784
2017-05-03T12:56:40.461Z,18560
2017-05-03T12:57:12.728Z,14768
2017-05-03T12:57:45.003Z,9524
2017-05-03T12:58:17.274Z,8764
2017-05-03T12:58:49.556Z,8500
2017-05-03T12:59:21.861Z,8916
2017-05-03T12:59:54.134Z,11104
2017-05-03T13:00:26.417Z,10300
2017-05-03T13:00:58.708Z,10196
2017-05-03T13:01:30.995Z,15580
2017-05-03T13:02:03.278Z,9796
2017-05-03T13:02:35.565Z,8728
2017-05-03T13:03:07.898Z,8100
2017-05-03T13:03:40.411Z,8108
2017-05-03T13:04:12.675Z,7260
2017-05-03T13:04:44.953Z,7104
2017-05-03T13:05:17.228Z,7256
2017-05-03T13:05:49.529Z,7512
2017-05-03T13:06:21.827Z,14240
2017-05-03T13:06:54.086Z,20096
2017-05-03T13:07:26.361Z,19936
2017-05-03T13:07:58.624Z,14596
2017-05-03T13:08:30.906Z,21600
2017-05-03T13:09:03.192Z,22112
2017-05-03T13:09:35.486Z,20704
2017-05-03T13:10:07.779Z,22368
2017-05-03T13:10:40.069Z,11464
2017-05-03T13:11:12.360Z,9076
2017-05-03T13:11:44.655Z,8152
2017-05-03T13:12:16.942Z,16484
2017-05-03T13:12:49.289Z,8988
2017-05-03T13:13:21.565Z,7168